Time;durP1;ratioP1;P1;durP2;ratioP2;P2;SDS_P1;SDS_P2;PMS_P1;PMS_P2;Temp;Humidity;BMP_temperature;BMP_pressure;BME280_temperature;BME280_humidity;BME280_pressure;Samples;Min_cycle;Max_cycle;Signal;HPM_P1;HPM_P2
2023/03/20 00:01:25;;;;;;;;;5.75;5.75;;;;;9.56;73.29;101892.59;5047467;28;10650;-68
2023/03/20 00:03:51;;;;;;;;;7.00;5.25;;;;;9.55;73.64;101888.25;5043117;28;10501;-66
2023/03/20 00:06:21;;;;;;;;;9.00;4.00;;;;;9.55;73.37;101888.25;5034514;28;10524;-66
2023/03/20 00:08:50;;;;;;;;;6.00;6.00;;;;;9.55;73.50;101885.56;5043019;28;10508;-66
2023/03/20 00:11:28;;;;;;;;;5.25;4.75;;;;;9.57;73.87;101873.66;5050811;28;10592;-64
2023/03/20 00:14:07;;;;;;;;;5.00;5.00;;;;;9.60;73.64;101877.84;5050557;28;10593;-66
2023/03/20 00:16:39;;;;;;;;;5.75;5.75;;;;;9.59;73.40;101871.63;5058831;28;10700;-68
2023/03/20 00:19:12;;;;;;;;;6.50;5.75;;;;;9.61;73.03;101874.16;5049828;28;10646;-68
2023/03/20 00:21:39;;;;;;;;;2.25;2.25;;;;;9.62;73.44;101878.53;5047810;28;10611;-66
2023/03/20 00:24:06;;;;;;;;;6.75;6.75;;;;;9.59;73.08;101863.56;5049954;28;10450;-65
2023/03/20 00:26:35;;;;;;;;;7.50;4.25;;;;;9.61;73.12;101872.31;5050162;28;10476;-64
2023/03/20 00:29:03;;;;;;;;;7.00;5.00;;;;;9.61;73.22;101876.84;5046201;28;10508;-68
2023/03/20 00:31:33;;;;;;;;;5.50;4.50;;;;;9.60;72.94;101888.59;5050378;28;10361;-67
2023/03/20 00:34:02;;;;;;;;;8.75;6.25;;;;;9.54;72.84;101894.63;5048600;28;11008;-69
2023/03/20 00:36:29;;;;;;;;;9.75;8.50;;;;;9.49;73.04;101903.19;5047476;28;10645;-66
2023/03/20 00:38:58;;;;;;;;;4.25;4.25;;;;;9.50;73.59;101902.16;5046819;28;10560;-67
2023/03/20 00:41:43;;;;;;;;;6.50;4.50;;;;;9.52;73.23;101912.75;5050304;28;10305;-63
2023/03/20 00:44:19;;;;;;;;;7.00;7.00;;;;;9.50;72.96;101918.28;5049765;28;10519;-68
2023/03/20 00:46:50;;;;;;;;;9.25;6.25;;;;;9.44;72.77;101920.78;5050115;28;11134;-68
2023/03/20 00:49:19;;;;;;;;;8.00;6.00;;;;;9.45;73.20;101914.41;5050173;28;11225;-67
2023/03/20 00:51:46;;;;;;;;;7.50;6.50;;;;;9.46;73.24;101908.88;5047130;28;10465;-65
2023/03/20 00:54:15;;;;;;;;;6.00;4.75;;;;;9.48;72.92;101895.25;5045071;28;10461;-65
2023/03/20 00:56:45;;;;;;;;;6.50;6.00;;;;;9.48;72.76;101884.50;5049706;28;10420;-64
2023/03/20 00:59:18;;;;;;;;;10.50;6.00;;;;;9.49;72.99;101903.19;5049626;28;10491;-64
2023/03/20 01:01:45;;;;;;;;;9.00;9.00;;;;;9.47;72.67;101915.09;5049486;28;10511;-66
2023/03/20 01:04:14;;;;;;;;;9.00;6.00;;;;;9.49;72.64;101918.47;5060362;28;11359;-65
2023/03/20 01:06:41;;;;;;;;;6.50;6.50;;;;;9.49;72.91;101910.41;5045906;28;10644;-66
2023/03/20 01:09:07;;;;;;;;;7.00;7.00;;;;;9.49;72.71;101903.19;5050090;28;11175;-65
2023/03/20 01:11:34;;;;;;;;;7.50;7.50;;;;;9.48;72.40;101909.56;5050018;28;11389;-65
2023/03/20 01:14:02;;;;;;;;;6.25;5.50;;;;;9.48;72.64;101909.56;5049254;28;10765;-66
2023/03/20 01:16:28;;;;;;;;;9.00;8.25;;;;;9.44;72.77;101915.41;5049909;28;10662;-65
2023/03/20 01:18:55;;;;;;;;;11.75;11.00;;;;;9.38;72.34;101908.84;5048871;28;10668;-66
2023/03/20 01:21:23;;;;;;;;;11.00;9.75;;;;;9.35;72.45;101915.34;5046329;28;10983;-66
2023/03/20 01:23:49;;;;;;;;;11.50;8.00;;;;;9.34;72.26;101923.59;5049659;28;10860;-66
2023/03/20 01:26:39;;;;;;;;;9.75;9.25;;;;;9.34;72.31;101916.38;5048009;28;10727;-66
2023/03/20 01:29:17;;;;;;;;;11.25;7.50;;;;;9.32;72.99;101910.31;5048469;28;10766;-64
2023/03/20 01:31:44;;;;;;;;;8.25;8.00;;;;;9.32;72.74;101907.63;5054915;28;10558;-65
2023/03/20 01:34:11;;;;;;;;;6.75;6.00;;;;;9.36;72.71;101911.69;5050020;28;10501;-66
2023/03/20 01:36:38;;;;;;;;;8.25;6.50;;;;;9.37;72.49;101918.75;5052087;28;10669;-65
2023/03/20 01:39:05;;;;;;;;;14.00;10.00;;;;;9.37;72.70;101921.44;5053475;28;10676;-67
2023/03/20 01:41:32;;;;;;;;;9.00;8.50;;;;;9.34;72.63;101924.44;5053384;28;10778;-66
2023/03/20 01:44:05;;;;;;;;;8.00;8.00;;;;;9.29;73.17;101921.38;5053363;28;10710;-66
2023/03/20 01:46:35;;;;;;;;;12.50;8.75;;;;;9.25;73.23;101920.03;5050399;28;10686;-64
2023/03/20 01:49:20;;;;;;;;;11.00;8.00;;;;;9.27;73.01;101915.31;5048927;28;10652;-65
2023/03/20 01:51:50;;;;;;;;;8.50;8.00;;;;;9.20;73.75;101916.97;5068653;28;10873;-66
2023/03/20 01:54:37;;;;;;;;;9.25;7.50;;;;;9.21;73.50;101915.13;5051598;28;10761;-66
2023/03/20 01:57:21;;;;;;;;;12.00;7.00;;;;;9.19;73.53;101915.25;5051526;28;10967;-66
2023/03/20 01:59:59;;;;;;;;;10.50;10.25;;;;;9.20;74.04;101903.53;5051529;28;10759;-65
2023/03/20 02:02:29;;;;;;;;;10.75;9.50;;;;;9.12;73.43;101895.44;5050739;28;11029;-64
2023/03/20 02:05:02;;;;;;;;;8.75;7.75;;;;;9.06;73.88;101883.47;5034310;28;11710;-64
2023/03/20 02:07:31;;;;;;;;;14.00;8.75;;;;;9.05;73.66;101889.00;5051572;28;10735;-66
2023/03/20 02:10:03;;;;;;;;;15.00;8.50;;;;;9.07;73.74;101898.56;5051868;28;10853;-67
2023/03/20 02:12:46;;;;;;;;;9.50;9.50;;;;;9.09;73.31;101888.53;5051771;28;10754;-65
2023/03/20 02:15:17;;;;;;;;;10.00;7.50;;;;;9.10;73.87;101886.69;5044107;28;10949;-66
2023/03/20 02:18:02;;;;;;;;;12.00;8.50;;;;;9.08;73.68;101889.53;5045601;28;10639;-65
2023/03/20 02:20:56;;;;;;;;;6.50;6.00;;;;;9.07;73.69;101881.63;5051647;28;10821;-64
2023/03/20 02:23:29;;;;;;;;;11.75;10.50;;;;;9.01;73.07;101869.69;5051626;28;10643;-66
2023/03/20 02:26:15;;;;;;;;;13.50;10.75;;;;;8.97;73.22;101878.22;5066333;28;10872;-66
2023/03/20 02:29:15;;;;;;;;;12.00;11.50;;;;;8.95;73.33;101874.84;5048951;28;10927;-66
2023/03/20 02:31:57;;;;;;;;;17.25;12.50;;;;;8.93;72.87;101880.38;5067400;28;10752;-66
2023/03/20 02:35:03;;;;;;;;;16.25;9.75;;;;;8.90;72.87;101862.72;5065715;28;10943;-66
2023/03/20 02:37:41;;;;;;;;;16.50;14.00;;;;;8.87;73.19;101855.00;5047059;28;10840;-65
2023/03/20 02:40:24;;;;;;;;;14.25;11.25;;;;;8.85;73.00;101840.88;5049899;28;11561;-65
2023/03/20 02:43:05;;;;;;;;;15.75;13.00;;;;;8.85;73.54;101829.31;5049792;28;10960;-66
2023/03/20 02:45:45;;;;;;;;;14.50;13.25;;;;;8.88;73.28;101823.63;5067435;28;11925;-66
2023/03/20 02:48:43;;;;;;;;;13.75;9.00;;;;;8.87;73.15;101830.84;5052641;28;11073;-66
2023/03/20 02:51:32;;;;;;;;;15.25;14.00;;;;;8.84;73.32;101833.00;5049438;28;10859;-67
2023/03/20 02:54:17;;;;;;;;;12.50;12.00;;;;;8.84;73.22;101836.53;5043647;28;11246;-65
2023/03/20 02:56:53;;;;;;;;;16.25;15.00;;;;;8.83;73.53;101832.16;5046598;28;10926;-66
2023/03/20 02:59:52;;;;;;;;;13.75;12.75;;;;;8.85;73.10;101835.50;5062130;28;11097;-63
2023/03/20 03:02:33;;;;;;;;;12.00;11.00;;;;;8.87;73.62;101836.22;5049513;28;11096;-65
2023/03/20 03:05:08;;;;;;;;;17.75;13.25;;;;;8.86;73.17;101839.88;5052111;28;10972;-66
2023/03/20 03:07:38;;;;;;;;;18.25;18.00;;;;;8.83;73.43;101839.34;5045275;28;11758;-65
2023/03/20 03:10:16;;;;;;;;;15.50;13.25;;;;;8.83;73.17;101839.34;5018862;28;11212;-65
2023/03/20 03:12:47;;;;;;;;;19.75;16.00;;;;;8.81;72.96;101841.34;5039073;28;11011;-65
2023/03/20 03:15:38;;;;;;;;;17.25;13.50;;;;;8.81;73.35;101836.00;5033195;28;11252;-64
2023/03/20 03:18:10;;;;;;;;;19.75;15.25;;;;;8.77;73.65;101823.88;5043884;28;11830;-64
2023/03/20 03:20:38;;;;;;;;;17.00;15.00;;;;;8.78;73.66;101825.56;5050690;28;11182;-64
2023/03/20 03:23:06;;;;;;;;;17.00;15.50;;;;;8.76;73.10;101824.91;5030787;28;11106;-66
2023/03/20 03:25:36;;;;;;;;;17.25;14.25;;;;;8.73;73.17;101822.50;5050037;28;11257;-66
2023/03/20 03:28:37;;;;;;;;;19.75;17.50;;;;;8.72;73.32;101810.09;5064784;28;11227;-65
2023/03/20 03:31:07;;;;;;;;;16.50;14.50;;;;;8.75;73.29;101805.25;5049951;28;11012;-66
2023/03/20 03:33:40;;;;;;;;;15.00;12.00;;;;;8.77;73.86;101810.47;5051274;28;10929;-66
2023/03/20 03:36:43;;;;;;;;;22.75;15.00;;;;;8.77;73.73;101805.94;5048342;28;11055;-65
2023/03/20 03:39:26;;;;;;;;;18.00;17.50;;;;;8.74;73.90;101800.88;5047352;28;11103;-65
2023/03/20 03:42:20;;;;;;;;;15.25;13.75;;;;;8.74;74.07;101798.19;5049596;28;11195;-66
2023/03/20 03:45:05;;;;;;;;;15.00;14.00;;;;;8.72;73.92;101797.53;5050200;28;11021;-70
2023/03/20 03:47:52;;;;;;;;;19.50;16.00;;;;;8.71;73.42;101784.22;5027539;28;11251;-66
2023/03/20 03:50:27;;;;;;;;;22.50;18.00;;;;;8.68;74.06;101789.94;5042822;28;11227;-67
2023/03/20 03:53:06;;;;;;;;;14.50;12.25;;;;;8.68;73.97;101795.31;5063817;28;12035;-66
2023/03/20 03:55:41;;;;;;;;;20.50;17.00;;;;;8.67;74.07;101786.44;5037917;28;11332;-67
2023/03/20 03:58:29;;;;;;;;;17.00;15.75;;;;;8.70;73.61;101787.94;5053269;28;11122;-66
2023/03/20 04:01:00;;;;;;;;;27.75;23.50;;;;;8.69;73.46;101776.34;5046682;28;11177;-65
2023/03/20 04:03:34;;;;;;;;;23.00;17.75;;;;;8.66;73.69;101784.72;5049684;28;11324;-65
2023/03/20 04:06:03;;;;;;;;;21.75;20.75;;;;;8.63;73.55;101790.44;5050489;28;11115;-67
2023/03/20 04:08:29;;;;;;;;;21.75;19.50;;;;;8.61;73.66;101787.03;5046495;28;11163;-68
2023/03/20 04:10:58;;;;;;;;;21.25;21.00;;;;;8.62;73.26;101789.56;5049657;28;11191;-67
2023/03/20 04:13:24;;;;;;;;;21.00;19.50;;;;;8.63;73.32;101798.47;5049690;28;11499;-67
2023/03/20 04:15:51;;;;;;;;;24.50;22.75;;;;;8.64;73.95;101792.09;5046647;28;11498;-67
2023/03/20 04:18:18;;;;;;;;;30.25;19.50;;;;;8.54;73.71;101785.97;5049579;28;11329;-66
2023/03/20 04:20:46;;;;;;;;;23.75;23.25;;;;;8.48;74.17;101792.00;5049142;28;12401;-67
2023/03/20 04:23:14;;;;;;;;;22.00;19.25;;;;;8.46;73.68;101794.81;5048555;28;11523;-67
2023/03/20 04:25:41;;;;;;;;;28.50;23.25;;;;;8.46;73.96;101786.75;5048950;28;11508;-67
2023/03/20 04:28:08;;;;;;;;;23.75;22.25;;;;;8.50;73.65;101781.94;5044593;28;11509;-69
2023/03/20 04:30:46;;;;;;;;;26.00;20.00;;;;;8.50;73.44;101784.63;5036074;28;12259;-68
2023/03/20 04:33:25;;;;;;;;;28.50;25.50;;;;;8.45;73.71;101797.66;5029264;28;11182;-67
2023/03/20 04:36:03;;;;;;;;;26.00;22.75;;;;;8.39;73.94;101800.00;5046307;28;11570;-67
2023/03/20 04:38:29;;;;;;;;;23.25;20.50;;;;;8.38;74.23;101797.44;5046219;28;11645;-66
2023/03/20 04:40:56;;;;;;;;;32.75;27.00;;;;;8.42;73.87;101788.91;5049192;28;11574;-67
2023/03/20 04:43:22;;;;;;;;;27.50;24.75;;;;;8.41;73.92;101795.28;5042157;28;11347;-68
2023/03/20 04:45:50;;;;;;;;;22.75;20.50;;;;;8.44;74.11;101778.03;5046953;28;11491;-66
2023/03/20 04:48:17;;;;;;;;;21.00;19.75;;;;;8.40;74.11;101780.19;5049238;28;11470;-68
2023/03/20 04:50:47;;;;;;;;;28.25;20.00;;;;;8.35;74.02;101770.91;5048832;28;11507;-67
2023/03/20 04:53:14;;;;;;;;;25.00;24.00;;;;;8.34;73.93;101767.38;5054567;28;11487;-67
2023/03/20 04:55:43;;;;;;;;;21.25;21.25;;;;;8.31;73.97;101765.03;5049236;28;11577;-67
2023/03/20 04:58:11;;;;;;;;;28.50;24.75;;;;;8.35;74.24;101774.44;5030188;28;11501;-68
2023/03/20 05:00:39;;;;;;;;;23.50;21.00;;;;;8.36;74.22;101769.91;5048306;28;11510;-68
2023/03/20 05:03:05;;;;;;;;;22.25;20.25;;;;;8.32;74.50;101769.38;5045499;28;11494;-67
2023/03/20 05:05:36;;;;;;;;;24.75;21.50;;;;;8.35;73.80;101758.34;5052872;28;11609;-67
2023/03/20 05:08:04;;;;;;;;;24.25;22.00;;;;;8.30;73.95;101757.94;5045939;28;12305;-68
2023/03/20 05:10:34;;;;;;;;;24.75;21.00;;;;;8.28;74.21;101759.97;5057786;28;11530;-66
2023/03/20 05:13:07;;;;;;;;;26.50;21.25;;;;;8.31;73.86;101758.81;5048233;28;11527;-68
2023/03/20 05:15:48;;;;;;;;;23.75;18.25;;;;;8.34;74.11;101762.00;5045684;28;11603;-67
2023/03/20 05:18:35;;;;;;;;;22.25;19.75;;;;;8.34;74.31;101759.31;5038542;28;11473;-66
2023/03/20 05:21:32;;;;;;;;;25.75;23.25;;;;;8.27;73.90;101760.13;5031526;28;11564;-67
2023/03/20 05:23:58;;;;;;;;;29.75;25.25;;;;;8.25;74.39;101764.78;5046463;28;12227;-68
2023/03/20 05:26:43;;;;;;;;;28.50;26.50;;;;;8.24;74.45;101769.31;5049235;28;11474;-66
2023/03/20 05:29:45;;;;;;;;;29.75;27.25;;;;;8.16;74.57;101764.72;5007273;28;11581;-66
2023/03/20 05:32:14;;;;;;;;;25.00;20.25;;;;;8.14;74.20;101768.56;5042077;28;11529;-67
2023/03/20 05:35:13;;;;;;;;;24.00;22.25;;;;;8.17;74.47;101766.41;5036947;28;11518;-66
2023/03/20 05:37:45;;;;;;;;;27.00;23.00;;;;;8.18;74.83;101759.19;5046308;28;11496;-69
2023/03/20 05:40:24;;;;;;;;;28.25;23.50;;;;;8.11;74.70;101766.22;5044337;28;11470;-66
2023/03/20 05:43:00;;;;;;;;;30.75;29.25;;;;;8.07;75.13;101767.50;5062128;28;11480;-66
2023/03/20 05:45:27;;;;;;;;;31.25;27.00;;;;;8.08;74.66;101769.19;5050007;28;11500;-66
2023/03/20 05:48:26;;;;;;;;;25.00;20.75;;;;;8.10;74.73;101764.50;5042666;28;11535;-66
2023/03/20 05:51:07;;;;;;;;;24.00;19.00;;;;;8.15;74.78;101771.09;5037886;28;11510;-66
2023/03/20 05:54:12;;;;;;;;;24.25;22.00;;;;;8.18;74.69;101768.13;5031335;28;11476;-68
2023/03/20 05:57:04;;;;;;;;;29.00;26.00;;;;;8.20;74.68;101762.59;5048060;28;11510;-67
2023/03/20 05:59:51;;;;;;;;;34.50;26.00;;;;;8.20;74.30;101767.94;5049150;28;11563;-67
2023/03/20 06:02:36;;;;;;;;;30.75;28.00;;;;;8.13;74.55;101765.03;5049490;28;12272;-65
2023/03/20 06:05:16;;;;;;;;;26.00;20.25;;;;;8.16;74.35;101769.25;5048215;28;11524;-68
2023/03/20 06:07:49;;;;;;;;;26.75;22.25;;;;;8.18;74.46;101772.59;5045291;28;11602;-68
2023/03/20 06:10:15;;;;;;;;;34.50;28.75;;;;;8.20;74.50;101775.16;5045477;28;11186;-66
2023/03/20 06:12:42;;;;;;;;;33.00;27.50;;;;;8.16;74.64;101780.81;5064683;28;12327;-67
2023/03/20 06:15:09;;;;;;;;;28.00;25.25;;;;;8.15;74.74;101783.66;5048015;28;11607;-68
2023/03/20 06:17:40;;;;;;;;;25.00;20.25;;;;;8.20;74.60;101778.69;5040557;28;11549;-66
2023/03/20 06:20:08;;;;;;;;;27.25;23.75;;;;;8.22;75.03;101784.72;5051479;28;11477;-67
2023/03/20 06:22:35;;;;;;;;;31.50;26.00;;;;;8.16;74.73;101782.66;5051318;28;11642;-69
2023/03/20 06:25:02;;;;;;;;;31.25;27.50;;;;;8.16;74.40;101780.81;5048325;28;12315;-66
2023/03/20 06:27:36;;;;;;;;;30.50;26.50;;;;;8.13;75.49;101778.44;5046518;28;11513;-68
2023/03/20 06:30:04;;;;;;;;;32.00;27.75;;;;;8.16;75.13;101780.81;5051098;28;11528;-66
2023/03/20 06:32:33;;;;;;;;;23.00;21.50;;;;;8.20;75.48;101786.72;5046267;28;11524;-66
2023/03/20 06:35:04;;;;;;;;;26.75;24.50;;;;;8.23;74.80;101780.22;5048194;28;11660;-66
2023/03/20 06:37:31;;;;;;;;;29.50;25.00;;;;;8.16;74.79;101779.97;5049517;28;11606;-67
2023/03/20 06:40:04;;;;;;;;;33.25;28.50;;;;;8.14;75.31;101784.66;5049108;28;12403;-67
2023/03/20 06:42:31;;;;;;;;;31.50;24.00;;;;;8.16;75.33;101780.81;5064784;28;11622;-66
2023/03/20 06:44:59;;;;;;;;;32.00;26.25;;;;;8.15;75.20;101786.34;5035589;28;11632;-68
2023/03/20 06:47:37;;;;;;;;;32.75;27.50;;;;;8.13;75.20;101781.13;5052143;28;12256;-68
2023/03/20 06:50:05;;;;;;;;;27.50;26.25;;;;;8.11;75.67;101779.63;5051239;28;11484;-67
2023/03/20 06:52:35;;;;;;;;;25.25;22.25;;;;;8.11;75.58;101787.66;5051212;28;11716;-65
2023/03/20 06:55:35;;;;;;;;;26.00;22.25;;;;;8.14;75.80;101771.22;5050957;28;11510;-62
2023/03/20 06:58:02;;;;;;;;;37.50;26.75;;;;;8.15;75.53;101783.66;5051633;28;11515;-67
2023/03/20 07:00:31;;;;;;;;;24.00;23.25;;;;;8.12;75.63;101784.81;5051144;28;11529;-67
2023/03/20 07:03:01;;;;;;;;;28.50;26.25;;;;;8.15;75.47;101789.03;5050941;28;11508;-66
2023/03/20 07:05:28;;;;;;;;;22.25;19.75;;;;;8.21;75.05;101787.56;5067381;28;11529;-65
2023/03/20 07:07:56;;;;;;;;;27.25;25.00;;;;;8.15;75.70;101787.19;5050792;28;11265;-65
2023/03/20 07:10:23;;;;;;;;;30.25;25.75;;;;;8.10;75.93;101799.38;5067490;28;11583;-69
2023/03/20 07:12:51;;;;;;;;;29.25;25.00;;;;;8.13;76.07;101804.41;5029727;28;11498;-65
2023/03/20 07:15:18;;;;;;;;;34.75;27.25;;;;;8.09;75.85;101806.56;5030374;28;11690;-66
2023/03/20 07:17:46;;;;;;;;;24.75;23.75;;;;;8.14;76.29;101803.41;5030926;28;11647;-65
2023/03/20 07:20:13;;;;;;;;;36.25;29.75;;;;;8.19;76.22;101803.81;5030531;28;11531;-66
2023/03/20 07:22:40;;;;;;;;;28.00;23.50;;;;;8.17;76.01;101803.94;5030675;28;11532;-65
2023/03/20 07:25:25;;;;;;;;;25.50;23.00;;;;;8.18;76.26;101799.44;5035920;28;12210;-67
2023/03/20 07:28:07;;;;;;;;;24.75;21.25;;;;;8.15;75.91;101803.28;5038383;28;11486;-66
2023/03/20 07:30:36;;;;;;;;;26.25;25.00;;;;;8.15;75.61;101805.13;5030662;28;11506;-65
2023/03/20 07:33:04;;;;;;;;;27.75;25.75;;;;;8.13;76.02;101801.75;5030715;28;12312;-66
2023/03/20 07:35:32;;;;;;;;;27.25;25.25;;;;;8.09;75.63;101806.56;5013802;28;11529;-66
2023/03/20 07:37:59;;;;;;;;;24.75;23.50;;;;;8.06;76.13;101806.03;5038836;28;11517;-66
2023/03/20 07:40:26;;;;;;;;;25.00;23.75;;;;;8.09;76.44;101811.94;5050060;28;11480;-66
2023/03/20 07:42:56;;;;;;;;;19.75;17.75;;;;;8.17;76.12;101812.00;5049931;28;11536;-67
2023/03/20 07:45:40;;;;;;;;;25.25;20.50;;;;;8.10;76.20;101812.78;5050933;28;11254;-65
2023/03/20 07:48:07;;;;;;;;;24.25;20.50;;;;;8.17;77.09;101803.13;5051226;28;12489;-66
2023/03/20 07:50:33;;;;;;;;;25.75;23.50;;;;;8.23;76.51;101805.19;5050387;28;11591;-68
2023/03/20 07:53:00;;;;;;;;;25.75;22.25;;;;;8.15;76.29;101807.81;5051095;28;11555;-67
2023/03/20 07:55:27;;;;;;;;;23.00;20.00;;;;;8.16;75.76;101806.81;5062777;28;11531;-67
2023/03/20 07:57:53;;;;;;;;;28.00;26.50;;;;;8.15;75.70;101805.97;5039599;28;11388;-66
2023/03/20 08:00:20;;;;;;;;;31.00;26.25;;;;;8.14;76.02;101809.66;5049665;28;12387;-67
2023/03/20 08:02:46;;;;;;;;;22.25;19.50;;;;;8.18;76.17;101807.47;5050742;28;11578;-66
2023/03/20 08:05:13;;;;;;;;;23.75;19.50;;;;;8.25;75.83;101808.53;5047096;28;11264;-66
2023/03/20 08:07:40;;;;;;;;;20.25;18.00;;;;;8.29;75.80;101809.09;5050039;28;11563;-66
2023/03/20 08:10:07;;;;;;;;;25.25;21.75;;;;;8.30;75.50;101813.44;5049611;28;11501;-67
2023/03/20 08:12:33;;;;;;;;;24.75;22.00;;;;;8.32;75.52;101814.16;5050849;28;12199;-66
2023/03/20 08:15:00;;;;;;;;;30.75;23.75;;;;;8.30;75.90;101810.75;5050505;28;11511;-67
2023/03/20 08:17:26;;;;;;;;;15.50;15.50;;;;;8.32;76.40;101814.97;5050478;28;11477;-66
2023/03/20 08:19:53;;;;;;;;;19.25;17.75;;;;;8.32;76.15;101819.50;5050766;28;11158;-65
2023/03/20 08:22:19;;;;;;;;;21.50;17.75;;;;;8.35;76.07;101812.00;5050667;28;11299;-66
2023/03/20 08:24:46;;;;;;;;;21.75;18.50;;;;;8.34;75.82;101820.19;5049931;28;11377;-67
2023/03/20 08:27:12;;;;;;;;;21.00;17.00;;;;;8.35;76.12;101819.22;5050768;28;11266;-66
2023/03/20 08:29:39;;;;;;;;;26.50;21.75;;;;;8.29;76.23;101817.97;5050485;28;11543;-67
2023/03/20 08:32:05;;;;;;;;;16.25;16.25;;;;;8.28;76.75;101812.78;5050361;28;12227;-67
2023/03/20 08:34:32;;;;;;;;;15.75;15.50;;;;;8.31;77.37;101816.00;5049677;28;11442;-65
2023/03/20 08:37:01;;;;;;;;;15.00;14.75;;;;;8.33;77.26;101813.97;5049277;28;11284;-66
2023/03/20 08:39:27;;;;;;;;;14.75;13.75;;;;;8.31;77.75;101813.31;5049369;28;11265;-68
2023/03/20 08:41:54;;;;;;;;;18.50;15.75;;;;;8.32;77.68;101811.47;5050195;28;11267;-65
2023/03/20 08:44:20;;;;;;;;;15.25;15.25;;;;;8.34;77.97;101820.19;5050059;28;11870;-66
2023/03/20 08:46:47;;;;;;;;;13.75;13.25;;;;;8.41;78.07;101810.56;5049761;28;11081;-65
2023/03/20 08:49:13;;;;;;;;;15.25;15.25;;;;;8.35;77.89;101814.69;5050152;28;11143;-66
2023/03/20 08:51:40;;;;;;;;;17.50;15.75;;;;;8.32;79.05;101811.47;5050380;28;11177;-67
2023/03/20 08:54:06;;;;;;;;;13.50;11.50;;;;;8.35;78.89;101806.63;5049864;28;10998;-67
2023/03/20 08:56:32;;;;;;;;;17.25;14.00;;;;;8.39;78.49;101812.56;5050066;28;10905;-65
2023/03/20 08:58:59;;;;;;;;;12.25;12.25;;;;;8.44;79.26;101810.25;5050148;28;11904;-66
2023/03/20 09:01:25;;;;;;;;;11.00;9.50;;;;;8.47;78.94;101807.25;5049814;28;10887;-66
2023/03/20 09:04:07;;;;;;;;;12.75;10.00;;;;;8.47;78.86;101803.69;5049767;28;10996;-67
2023/03/20 09:06:35;;;;;;;;;12.00;11.50;;;;;8.52;78.96;101804.94;5049920;28;11061;-66
2023/03/20 09:09:02;;;;;;;;;14.75;13.50;;;;;8.58;78.80;101798.91;5050025;28;11131;-66
2023/03/20 09:11:29;;;;;;;;;14.00;12.75;;;;;8.60;78.62;101804.16;5049948;28;10872;-65
2023/03/20 09:13:56;;;;;;;;;18.75;16.75;;;;;8.64;79.00;101808.22;5049869;28;11592;-66
2023/03/20 09:16:23;;;;;;;;;14.75;11.75;;;;;8.60;79.21;101807.69;5049576;28;11066;-65
2023/03/20 09:18:49;;;;;;;;;11.75;10.75;;;;;8.63;79.34;101798.47;5049818;28;11320;-66
2023/03/20 09:21:16;;;;;;;;;12.00;10.50;;;;;8.58;79.04;101796.25;5049802;28;10922;-67
2023/03/20 09:23:43;;;;;;;;;15.00;14.50;;;;;8.55;79.21;101791.22;5049733;28;10738;-67
2023/03/20 09:26:09;;;;;;;;;9.50;9.00;;;;;8.53;79.54;101795.03;5049626;28;11669;-67
2023/03/20 09:28:36;;;;;;;;;16.75;12.25;;;;;8.63;79.90;101782.38;5049805;28;10926;-68
2023/03/20 09:31:02;;;;;;;;;12.25;11.50;;;;;8.64;79.70;101800.16;5049657;28;11010;-65
2023/03/20 09:33:29;;;;;;;;;12.00;9.00;;;;;8.63;79.72;101793.09;5049006;28;10941;-67
2023/03/20 09:35:55;;;;;;;;;13.00;10.00;;;;;8.62;79.66;101789.56;5049784;28;10824;-66
2023/03/20 09:38:23;;;;;;;;;10.25;9.00;;;;;8.65;79.85;101788.41;5049950;28;11374;-66
2023/03/20 09:40:52;;;;;;;;;10.25;9.25;;;;;8.64;79.96;101803.69;5048958;28;11531;-68
2023/03/20 09:43:46;;;;;;;;;11.00;10.00;;;;;8.65;80.25;101797.31;5049983;28;10823;-65
2023/03/20 09:46:34;;;;;;;;;15.25;12.75;;;;;8.69;79.84;101792.47;5049792;28;10883;-66
2023/03/20 09:49:24;;;;;;;;;15.25;11.25;;;;;8.75;80.08;101799.03;5049280;28;10914;-65
2023/03/20 09:51:55;;;;;;;;;12.50;10.00;;;;;8.76;80.32;101803.41;5052634;28;10858;-67
2023/03/20 09:54:40;;;;;;;;;13.25;10.00;;;;;8.73;80.59;101796.50;5053463;28;11088;-66
2023/03/20 09:57:25;;;;;;;;;11.50;11.25;;;;;8.73;80.42;101804.56;5053735;28;10737;-69
2023/03/20 09:59:58;;;;;;;;;13.00;11.50;;;;;8.75;80.54;101797.22;5053667;28;10854;-66
2023/03/20 10:02:38;;;;;;;;;16.25;15.00;;;;;8.74;80.92;101802.72;5052668;28;10882;-64
2023/03/20 10:05:16;;;;;;;;;9.25;9.25;;;;;8.78;81.32;101804.09;5051799;28;11045;-68
2023/03/20 10:07:42;;;;;;;;;12.25;12.25;;;;;8.73;80.54;101795.66;5053620;28;11064;-66
2023/03/20 10:10:13;;;;;;;;;13.00;13.00;;;;;8.78;80.86;101791.50;5053243;28;10919;-65
2023/03/20 10:12:48;;;;;;;;;17.75;17.00;;;;;8.74;80.71;101800.03;5053405;28;10932;-65
2023/03/20 10:15:46;;;;;;;;;13.75;10.50;;;;;8.65;80.97;101797.31;5052283;28;11129;-66
2023/03/20 10:18:23;;;;;;;;;17.25;15.75;;;;;8.60;81.53;101794.25;5052993;28;10837;-67
2023/03/20 10:20:59;;;;;;;;;17.00;14.25;;;;;8.62;81.64;101797.59;5052305;28;11047;-66
2023/03/20 10:23:40;;;;;;;;;21.00;17.25;;;;;8.63;81.36;101795.78;5053153;28;11242;-67
2023/03/20 10:26:16;;;;;;;;;20.25;15.25;;;;;8.61;81.36;101790.56;5052539;28;11375;-66
2023/03/20 10:28:46;;;;;;;;;17.00;13.25;;;;;8.60;82.13;101794.25;5052977;28;11083;-65
2023/03/20 10:31:33;;;;;;;;;29.00;23.00;;;;;8.63;81.91;101787.75;5052913;28;10860;-66
2023/03/20 10:34:15;;;;;;;;;19.00;18.25;;;;;8.59;81.97;101791.75;5052574;28;11262;-66
2023/03/20 10:37:17;;;;;;;;;20.75;18.75;;;;;8.64;81.67;101789.41;5051952;28;11015;-64
2023/03/20 10:40:09;;;;;;;;;27.25;18.25;;;;;8.60;81.18;101777.31;5011593;28;11237;-65
2023/03/20 10:42:40;;;;;;;;;26.25;18.50;;;;;8.61;81.80;101779.00;5041908;28;11173;-66
2023/03/20 10:45:20;;;;;;;;;27.25;23.50;;;;;8.68;82.48;101788.09;5051055;28;11175;-66
2023/03/20 10:47:50;;;;;;;;;27.50;26.75;;;;;8.70;81.46;101786.09;5052386;28;11490;-67
2023/03/20 10:50:22;;;;;;;;;23.00;22.75;;;;;8.69;82.08;101787.09;5052000;28;11508;-66
2023/03/20 10:52:54;;;;;;;;;28.75;25.75;;;;;8.66;82.09;101779.34;5052346;28;11107;-66
2023/03/20 10:55:29;;;;;;;;;17.75;17.25;;;;;8.65;82.25;101775.81;5052089;28;11571;-65
2023/03/20 10:58:18;;;;;;;;;26.25;21.50;;;;;8.65;82.46;101775.81;5052557;28;11319;-65
2023/03/20 11:00:44;;;;;;;;;26.00;24.50;;;;;8.64;82.29;101778.69;5051139;28;11634;-65
2023/03/20 11:03:22;;;;;;;;;27.50;26.00;;;;;8.73;83.02;101775.03;5051306;28;11505;-66
2023/03/20 11:05:55;;;;;;;;;31.75;23.75;;;;;8.65;82.86;101769.63;5051539;28;11520;-65
2023/03/20 11:08:39;;;;;;;;;32.75;30.50;;;;;8.57;82.73;101783.00;5052232;28;11192;-66
2023/03/20 11:11:05;;;;;;;;;30.75;28.50;;;;;8.58;83.18;101773.94;5052129;28;11479;-67
2023/03/20 11:13:34;;;;;;;;;35.50;27.75;;;;;8.64;83.50;101773.31;5052284;28;11488;-67
2023/03/20 11:16:20;;;;;;;;;30.00;27.50;;;;;8.72;83.66;101770.69;5050692;28;11629;-67
2023/03/20 11:18:48;;;;;;;;;37.75;30.75;;;;;8.75;83.87;101778.41;5052119;28;11507;-66
2023/03/20 11:21:19;;;;;;;;;30.75;27.00;;;;;8.73;83.41;101774.19;5051896;28;11508;-65
2023/03/20 11:23:46;;;;;;;;;32.00;27.00;;;;;8.67;83.32;101778.38;5052118;28;11570;-66
2023/03/20 11:26:15;;;;;;;;;29.75;27.50;;;;;8.67;84.17;101767.63;5051185;28;11495;-66
2023/03/20 11:28:55;;;;;;;;;39.75;32.25;;;;;8.70;83.96;101771.81;5051083;28;11521;-67
2023/03/20 11:31:35;;;;;;;;;37.00;31.00;;;;;8.70;84.18;101767.28;5051476;28;11572;-67
2023/03/20 11:34:23;;;;;;;;;32.75;27.25;;;;;8.70;84.00;101771.81;5051393;28;11572;-66
2023/03/20 11:36:56;;;;;;;;;35.25;25.75;;;;;8.77;84.22;101759.47;5051375;28;11664;-66
2023/03/20 11:39:36;;;;;;;;;34.75;31.25;;;;;8.77;84.69;101765.66;5051610;28;11573;-66
2023/03/20 11:42:04;;;;;;;;;40.50;38.00;;;;;8.77;84.38;101752.25;5051554;28;11479;-65
2023/03/20 11:44:34;;;;;;;;;34.50;30.75;;;;;8.74;84.44;101757.91;5051288;28;11517;-65
2023/03/20 11:47:10;;;;;;;;;34.00;29.75;;;;;8.77;85.12;101757.59;5050961;28;11494;-66
2023/03/20 11:49:52;;;;;;;;;32.50;29.00;;;;;8.81;84.58;101761.66;5051337;28;12347;-66